Wednesday, October 18, 2017, 6:03 PM EDT
Back to Local

KFMH, Otis Air National Guard Base

Location: Mashpee, MA, United States Lat: 41.65
Local Time: 6:03 PM EDT (22:03 GMT) Lon: -70.517
Time Zone: US/Eastern Elev: 131 ft

Show me the last for .
Show Coded

Time T Td Feel RH Dir Speed Gust Alt SLP Vis Weather Sky Remarks
2017-10-18 17:35 63 54 - 72 230° 9 - 30.26 - 10 CLR None
2017-10-18 17:15 64 54 - 67 220° 8 - 30.25 - 10 CLR None
2017-10-18 16:55 66 52 - 59 240° 8 - 30.24 - 10 CLR None
2017-10-18 16:35 66 52 - 59 220° 9 - 30.24 - 10 CLR None
2017-10-18 16:15 66 50 - 55 240° 8 - 30.24 - 10 CLR None
2017-10-18 15:55 68 50 - 52 220° 9 - 30.24 - 10 CLR None
2017-10-18 15:35 66 50 - 55 230° 9 15 30.24 - 10 CLR None
2017-10-18 15:15 66 50 - 55 250° 10 - 30.24 - 10 CLR None
2017-10-18 14:55 68 50 - 52 220° 10 - 30.24 - 10 CLR None
2017-10-18 14:35 68 48 - 49 240° 7 - 30.24 - 10 None
2017-10-18 14:15 68 48 - 49 270° 7 - 30.23 - 0 None
2017-10-18 13:55 68 48 - 49 260° 8 15 30.23 - 9 CLR None
2017-10-18 13:35 68 48 - 49 260° 10 - 30.24 - 10 CLR None
2017-10-18 13:15 66 48 - 52 260° 9 - 30.24 - 10 CLR None
2017-10-18 12:55 66 46 - 48 270° 12 - 30.26 - 10 CLR None
2017-10-18 12:35 66 46 - 48 270° 10 - 30.27 - 10 CLR None
2017-10-18 12:15 66 46 - 48 280° 12 - 30.27 - 10 CLR None
2017-10-18 11:55 64 45 - 48 290° 9 - 30.28 - 10 CLR None
2017-10-18 11:35 64 45 - 48 260° 10 - 30.28 - 10 CLR None
2017-10-18 11:15 63 46 - 55 270° 10 17 30.28 - 10 CLR None
2017-10-18 10:55 63 45 - 51 270° 10 - 30.28 - 10 CLR None
2017-10-18 10:35 63 45 - 51 260° 13 - 30.28 - 10 CLR None
2017-10-18 10:15 63 45 - 51 270° 12 - 30.28 - 10 CLR None
2017-10-18 09:55 61 45 - 55 260° 12 - 30.28 - 10 CLR None
2017-10-18 09:35 59 43 - 54 250° 14 - 30.28 - 10 CLR None
2017-10-18 09:15 59 43 - 54 260° 15 - 30.28 - 10 CLR None
2017-10-18 08:35 57 43 - 58 250° 10 - 30.27 - 10 CLR None
2017-10-18 08:15 55 43 - 62 250° 10 - 30.27 - 10 CLR None
2017-10-18 07:55 54 43 - 66 250° 9 - 30.27 - 10 CLR None
2017-10-18 07:35 52 41 - 66 240° 9 28 30.27 - 10 CLR None
2017-10-18 07:15 50 41 47 71 240° 8 - 30.26 - 10 CLR None
2017-10-18 06:55 50 39 47 66 240° 7 - 30.25 - 10 CLR None
2017-10-18 06:35 52 39 - 62 270° 9 - 30.25 - 10 CLR None
2017-10-18 06:15 52 39 - 62 250° 12 - 30.26 - 10 CLR None
2017-10-18 05:55 52 41 - 66 250° 10 - 30.25 - 10 CLR None
2017-10-18 05:35 52 41 - 66 250° 10 - 30.25 - 10 CLR None
2017-10-18 05:15 54 41 - 62 260° 10 - 30.25 - 10 CLR None
2017-10-18 04:55 54 41 - 62 260° 13 - 30.24 - 10 CLR None
2017-10-18 04:35 54 41 - 62 260° 13 - 30.24 - 10 CLR None
2017-10-18 04:15 54 45 - 71 250° 14 - 30.23 - 10 CLR None
2017-10-18 03:55 52 45 - 76 250° 13 - 30.24 - 10 CLR None
2017-10-18 03:35 52 45 - 76 250° 10 - 30.24 - 10 CLR None
2017-10-18 03:15 48 43 44 81 250° 10 - 30.24 - 10 CLR None
2017-10-18 02:55 39 37 - 93 - Calm - 30.25 - 10 CLR None
2017-10-18 02:35 39 37 - 93 - Calm - 30.25 - 10 CLR None
2017-10-18 02:15 39 37 - 93 - Calm - 30.25 - 10 CLR None
2017-10-18 01:55 41 37 - 86 - Calm - 30.26 - 10 CLR None
2017-10-18 01:35 43 39 - 86 - Calm - 30.26 - 10 CLR None
2017-10-18 01:15 41 39 - 93 - Calm - 30.26 - 10 CLR None
2017-10-18 00:55 43 39 - 86 - Calm - 30.26 - 10 CLR None
2017-10-18 00:35 45 41 42 87 220° 5 - 30.26 - 10 CLR None
2017-10-18 00:15 43 39 - 86 - Calm - 30.27 - 10 CLR None
2017-10-17 23:55 43 39 41 86 230° 3 - 30.27 - 10 CLR None
2017-10-17 23:35 43 39 39 86 240° 6 - 30.27 - 10 CLR None
2017-10-17 23:15 41 37 37 86 250° 6 - 30.28 - 10 CLR None
2017-10-17 22:55 43 39 39 86 250° 7 - 30.28 - 10 CLR None
2017-10-17 22:35 46 39 42 75 230° 8 - 30.28 - 10 CLR None
2017-10-17 22:15 45 39 41 81 220° 7 - 30.28 - 10 CLR None
2017-10-17 21:55 45 39 40 81 220° 8 - 30.28 - 10 CLR None
2017-10-17 21:35 45 37 41 75 230° 7 - 30.28 - 10 CLR None
2017-10-17 21:15 45 39 41 81 210° 7 - 30.28 - 10 CLR None
2017-10-17 20:55 45 39 40 81 220° 8 - 30.27 - 10 CLR None
2017-10-17 20:35 46 39 42 75 220° 8 - 30.27 - 10 CLR None
2017-10-17 20:15 46 39 42 75 220° 8 - 30.26 - 10 CLR None
2017-10-17 19:55 45 37 40 75 220° 8 - 30.27 - 10 CLR None
2017-10-17 19:35 45 37 41 75 210° 7 - 30.27 - 10 CLR None
2017-10-17 19:15 46 37 44 70 220° 6 - 30.27 - 10 CLR None
2017-10-17 18:55 46 37 43 70 200° 7 - 30.26 - 10 CLR None
2017-10-17 18:35 46 39 43 75 220° 7 - 30.26 - 10 CLR None
2017-10-17 18:15 48 39 45 70 220° 7 - 30.25 - 10 CLR None

Support USWX by starting your Amazon purchase here.